createdAt,value
2022-08-18T00:00:22.816Z,69.20
2022-08-18T00:00:54.549Z,69.22
2022-08-18T00:01:26.303Z,69.05
2022-08-18T00:02:30.171Z,69.31
2022-08-18T00:03:06.903Z,69.32
2022-08-18T00:03:59.359Z,69.26
2022-08-18T00:04:48.546Z,69.25
2022-08-18T00:05:21.616Z,68.92
2022-08-18T00:05:53.177Z,69.06
2022-08-18T00:06:24.739Z,68.91
2022-08-18T00:07:00.454Z,68.80
2022-08-18T00:07:33.380Z,68.79
2022-08-18T00:08:05.778Z,68.60
2022-08-18T00:08:38.679Z,68.64
2022-08-18T00:09:11.306Z,68.46
2022-08-18T00:09:43.920Z,68.95
2022-08-18T00:10:15.538Z,68.81
2022-08-18T00:10:50.330Z,68.94
2022-08-18T00:11:22.094Z,68.75
2022-08-18T00:11:53.738Z,68.58
2022-08-18T00:12:30.740Z,68.53
2022-08-18T00:13:02.409Z,67.78
2022-08-18T00:13:35.195Z,67.60
2022-08-18T00:14:07.616Z,67.10
2022-08-18T00:14:39.392Z,67.79
2022-08-18T00:15:14.159Z,67.25
2022-08-18T00:15:49.144Z,67.22
2022-08-18T00:16:21.047Z,67.36
2022-08-18T00:16:54.377Z,67.38
2022-08-18T00:17:25.986Z,67.55
2022-08-18T00:17:57.559Z,67.45
2022-08-18T00:18:29.129Z,66.50
2022-08-18T00:19:03.645Z,66.21
2022-08-18T00:19:45.999Z,66.33
2022-08-18T00:20:22.706Z,66.64
2022-08-18T00:20:54.357Z,66.93
2022-08-18T00:21:26.035Z,66.79
2022-08-18T00:21:58.369Z,66.54
2022-08-18T00:22:29.991Z,66.13
2022-08-18T00:23:01.628Z,66.33
2022-08-18T00:23:33.424Z,66.29
2022-08-18T00:24:05.606Z,65.94
2022-08-18T00:24:38.491Z,65.55
2022-08-18T00:25:21.052Z,66.05
2022-08-18T00:25:52.641Z,65.93
2022-08-18T00:26:24.231Z,65.56
2022-08-18T00:26:55.790Z,64.99
2022-08-18T00:27:31.770Z,64.57
2022-08-18T00:28:04.006Z,64.69
2022-08-18T00:28:35.604Z,64.41
2022-08-18T00:29:07.151Z,64.14
2022-08-18T00:29:38.704Z,63.96
2022-08-18T00:30:13.877Z,63.98
2022-08-18T00:30:45.466Z,64.05
2022-08-18T00:31:19.749Z,64.33
2022-08-18T00:31:51.759Z,64.80
2022-08-18T00:32:27.855Z,64.07
2022-08-18T00:33:01.129Z,64.46
2022-08-18T00:33:32.981Z,64.43
2022-08-18T00:34:04.639Z,64.43
2022-08-18T00:34:36.194Z,64.01
2022-08-18T00:35:14.224Z,64.35
2022-08-18T00:35:45.784Z,64.34
2022-08-18T00:36:17.350Z,63.95
2022-08-18T00:36:50.197Z,63.90
2022-08-18T00:37:23.127Z,63.84
2022-08-18T00:37:57.168Z,63.82
2022-08-18T00:38:28.739Z,64.14
2022-08-18T00:39:01.141Z,64.18
2022-08-18T00:39:35.122Z,64.11
2022-08-18T00:40:16.780Z,63.94
2022-08-18T00:40:54.289Z,63.62
2022-08-18T00:41:26.728Z,63.74
2022-08-18T00:41:58.306Z,63.64
2022-08-18T00:42:31.278Z,63.55
2022-08-18T00:43:05.610Z,63.38
2022-08-18T00:43:46.496Z,63.58
2022-08-18T00:44:18.051Z,63.57
2022-08-18T00:44:50.027Z,63.60
2022-08-18T00:45:41.914Z,63.59
2022-08-18T00:46:23.589Z,63.94
2022-08-18T00:46:55.139Z,64.09
2022-08-18T00:47:41.157Z,64.08
2022-08-18T00:48:14.743Z,67.71
2022-08-18T00:48:48.322Z,66.84
2022-08-18T00:49:20.473Z,64.92
2022-08-18T00:49:53.239Z,64.44
2022-08-18T00:50:32.835Z,64.51
2022-08-18T00:51:11.547Z,64.29
2022-08-18T00:51:50.659Z,64.68
2022-08-18T00:52:24.701Z,64.80
2022-08-18T00:53:02.885Z,65.41
2022-08-18T00:53:47.699Z,65.10
2022-08-18T00:54:22.693Z,65.14
2022-08-18T00:54:55.493Z,65.17
2022-08-18T00:55:29.386Z,67.14
2022-08-18T00:56:08.585Z,65.97
2022-08-18T00:56:47.487Z,65.51
2022-08-18T00:57:21.578Z,65.54
2022-08-18T00:58:01.292Z,64.22
2022-08-18T00:58:38.117Z,64.21
2022-08-18T00:59:20.561Z,64.80
2022-08-18T01:00:03.525Z,64.17
2022-08-18T01:00:36.194Z,64.73
2022-08-18T01:01:09.638Z,64.63
2022-08-18T01:01:43.214Z,65.10
2022-08-18T01:02:26.369Z,65.08
2022-08-18T01:03:01.375Z,65.18
2022-08-18T01:03:36.432Z,65.20
2022-08-18T01:04:48.731Z,65.29
2022-08-18T01:05:27.191Z,65.18
2022-08-18T01:06:09.685Z,64.90
2022-08-18T01:07:10.745Z,65.47
2022-08-18T01:07:46.181Z,65.76
2022-08-18T01:08:21.846Z,65.70
2022-08-18T01:09:01.784Z,68.30
2022-08-18T01:09:33.974Z,68.13
2022-08-18T01:10:06.506Z,68.66
2022-08-18T01:10:39.605Z,68.62
2022-08-18T01:11:11.218Z,66.25
2022-08-18T01:11:43.267Z,65.70
2022-08-18T01:12:45.949Z,65.41
2022-08-18T01:13:07.125Z,65.51
2022-08-18T01:13:41.556Z,65.90
2022-08-18T01:14:18.427Z,65.63
2022-08-18T01:14:49.985Z,65.58
2022-08-18T01:15:28.061Z,65.84
2022-08-18T01:16:22.057Z,66.40
2022-08-18T01:17:12.103Z,71.03
2022-08-18T01:18:02.805Z,68.94
2022-08-18T01:18:52.953Z,69.06
2022-08-18T01:19:45.391Z,70.80
2022-08-18T01:20:46.145Z,69.38
2022-08-18T01:21:44.189Z,69.11
2022-08-18T01:22:33.069Z,69.43
2022-08-18T01:23:12.593Z,69.51
2022-08-18T01:23:45.705Z,69.69
2022-08-18T01:24:21.864Z,69.65
2022-08-18T01:25:26.496Z,69.91
2022-08-18T01:26:01.053Z,69.02
2022-08-18T01:26:37.571Z,69.28
2022-08-18T01:27:18.504Z,69.54
2022-08-18T01:27:51.134Z,69.05
2022-08-18T01:28:23.672Z,70.64
2022-08-18T01:28:55.204Z,70.34
2022-08-18T01:29:27.865Z,69.81
2022-08-18T01:30:10.178Z,69.72
2022-08-18T01:30:58.379Z,69.43
2022-08-18T01:31:54.384Z,69.42
2022-08-18T01:32:27.635Z,69.71
2022-08-18T01:32:59.339Z,69.57
2022-08-18T01:33:42.915Z,69.58
2022-08-18T01:34:14.645Z,69.36
2022-08-18T01:34:48.732Z,69.26
2022-08-18T01:35:23.364Z,68.97
2022-08-18T01:35:55.130Z,69.18
2022-08-18T01:36:28.488Z,69.07
2022-08-18T01:37:00.282Z,69.18
2022-08-18T01:37:31.919Z,70.27
2022-08-18T01:38:03.488Z,70.72
2022-08-18T01:38:35.699Z,71.34
2022-08-18T01:39:10.689Z,70.47
2022-08-18T01:41:22.759Z,70.80
2022-08-18T01:41:24.475Z,70.77
2022-08-18T01:41:30.457Z,70.68
2022-08-18T01:42:04.692Z,70.57
2022-08-18T01:42:38.354Z,70.54
2022-08-18T01:43:10.373Z,70.15
2022-08-18T01:43:41.981Z,70.36
2022-08-18T01:44:13.595Z,70.27
2022-08-18T01:44:47.780Z,70.29
2022-08-18T01:45:20.642Z,69.75
2022-08-18T01:45:52.647Z,69.80
2022-08-18T01:46:24.928Z,70.29
2022-08-18T01:46:56.522Z,70.45
2022-08-18T01:47:28.842Z,70.16
2022-08-18T01:48:05.264Z,69.92
2022-08-18T01:48:37.814Z,70.22
2022-08-18T01:49:10.641Z,70.63
2022-08-18T01:49:45.252Z,71.24
2022-08-18T01:50:18.029Z,71.23
2022-08-18T01:50:49.961Z,71.39
2022-08-18T01:51:38.826Z,71.06
2022-08-18T01:52:21.894Z,70.88
2022-08-18T01:52:53.849Z,70.71
2022-08-18T01:53:26.643Z,70.69
2022-08-18T01:53:59.330Z,70.76
2022-08-18T01:54:31.232Z,70.76
2022-08-18T01:55:04.447Z,70.70
2022-08-18T01:55:40.120Z,70.59
2022-08-18T01:56:13.160Z,70.41
2022-08-18T01:56:44.831Z,70.30
2022-08-18T01:57:17.468Z,70.33
2022-08-18T01:57:49.193Z,70.46
2022-08-18T01:58:31.603Z,70.46
2022-08-18T01:59:05.226Z,70.54
2022-08-18T01:59:36.799Z,70.57
2022-08-18T02:00:10.269Z,70.66
2022-08-18T02:01:20.943Z,70.77
2022-08-18T02:01:55.713Z,71.01
2022-08-18T02:02:32.893Z,71.04
2022-08-18T02:03:08.557Z,71.08
2022-08-18T02:03:46.829Z,71.17
2022-08-18T02:04:36.749Z,71.15
2022-08-18T02:05:14.499Z,71.36
2022-08-18T02:05:49.779Z,71.36
2022-08-18T02:06:32.326Z,71.30
2022-08-18T02:07:10.168Z,71.66
2022-08-18T02:07:42.522Z,71.67
2022-08-18T02:08:15.533Z,71.76
2022-08-18T02:08:53.533Z,71.92
2022-08-18T02:09:25.641Z,71.94
2022-08-18T02:09:58.249Z,71.88
2022-08-18T02:10:31.587Z,71.91
2022-08-18T02:11:03.496Z,71.96
2022-08-18T02:11:35.353Z,72.05
2022-08-18T02:12:07.781Z,72.03
2022-08-18T02:12:40.908Z,72.04
2022-08-18T02:13:13.027Z,71.97
2022-08-18T02:13:44.614Z,72.07
2022-08-18T02:14:16.283Z,72.16
2022-08-18T02:14:47.901Z,72.33
2022-08-18T02:15:19.852Z,72.36
2022-08-18T02:15:51.465Z,72.32
2022-08-18T02:16:23.075Z,72.36
2022-08-18T02:17:01.081Z,72.27
2022-08-18T02:17:43.071Z,72.19
2022-08-18T02:18:25.054Z,72.17
2022-08-18T02:19:07.983Z,72.41
2022-08-18T02:19:48.674Z,72.65
2022-08-18T02:20:20.485Z,72.71
2022-08-18T02:20:52.361Z,72.56
2022-08-18T02:21:24.005Z,72.46
2022-08-18T02:21:55.647Z,72.52
2022-08-18T02:22:27.949Z,72.51
2022-08-18T02:22:59.574Z,72.63
2022-08-18T02:23:31.905Z,72.62
2022-08-18T02:24:04.035Z,72.75
2022-08-18T02:24:36.104Z,72.71
2022-08-18T02:25:08.666Z,72.68
2022-08-18T02:25:42.573Z,72.62
2022-08-18T02:26:16.964Z,72.57
2022-08-18T02:26:49.177Z,72.57
2022-08-18T02:27:20.743Z,72.54
2022-08-18T02:27:52.736Z,72.44
2022-08-18T02:28:30.149Z,72.39
2022-08-18T02:29:02.221Z,72.53
2022-08-18T02:29:34.345Z,72.65
2022-08-18T02:30:09.246Z,72.78
2022-08-18T02:30:40.805Z,72.65
2022-08-18T02:31:22.173Z,72.43
2022-08-18T02:31:53.955Z,72.16
2022-08-18T02:32:25.569Z,71.95
2022-08-18T02:33:01.797Z,72.01
2022-08-18T02:33:34.173Z,71.97
2022-08-18T02:34:05.739Z,71.90
2022-08-18T02:34:37.824Z,71.76
2022-08-18T02:35:11.976Z,71.68
2022-08-18T02:35:46.187Z,71.69
2022-08-18T02:36:18.819Z,71.59
2022-08-18T02:36:50.415Z,71.60
2022-08-18T02:37:22.975Z,71.67
2022-08-18T02:37:54.825Z,71.64
2022-08-18T02:38:26.809Z,71.59
2022-08-18T02:39:01.755Z,71.63
2022-08-18T02:39:35.698Z,71.66
2022-08-18T02:40:08.062Z,71.74
2022-08-18T02:40:39.760Z,71.78
2022-08-18T02:41:12.715Z,71.78
2022-08-18T02:41:44.309Z,71.98
2022-08-18T02:42:16.303Z,72.07
2022-08-18T02:42:47.917Z,72.14
2022-08-18T02:43:19.547Z,72.08
2022-08-18T02:43:51.151Z,72.20
2022-08-18T02:44:22.913Z,72.31
2022-08-18T02:44:54.585Z,72.41
2022-08-18T02:45:26.201Z,72.39
2022-08-18T02:45:58.346Z,72.31
2022-08-18T02:46:31.213Z,72.31
2022-08-18T02:47:03.225Z,72.71
2022-08-18T02:47:34.792Z,72.58
2022-08-18T02:48:07.198Z,72.53
2022-08-18T02:48:38.873Z,72.49
2022-08-18T02:49:10.529Z,72.54
2022-08-18T02:49:42.104Z,72.46
2022-08-18T02:50:13.836Z,72.47
2022-08-18T02:50:47.104Z,72.47
2022-08-18T02:51:19.223Z,72.55
2022-08-18T02:51:52.231Z,72.55
2022-08-18T02:52:32.872Z,72.61
2022-08-18T02:53:04.610Z,72.67
2022-08-18T02:53:37.648Z,72.70
2022-08-18T02:54:09.337Z,72.74
2022-08-18T02:54:41.152Z,72.88
2022-08-18T02:55:12.986Z,72.82
2022-08-18T02:55:44.545Z,72.95
2022-08-18T02:56:40.551Z,73.06
2022-08-18T02:57:13.685Z,73.16
2022-08-18T02:57:47.359Z,73.03
2022-08-18T02:58:20.450Z,72.99
2022-08-18T02:58:55.157Z,73.08
2022-08-18T02:59:27.832Z,73.00
2022-08-18T03:00:00.574Z,73.09
2022-08-18T03:00:32.612Z,73.14
2022-08-18T03:01:04.227Z,73.12
2022-08-18T03:01:39.692Z,73.15
2022-08-18T03:02:11.397Z,73.23
2022-08-18T03:02:47.439Z,73.33
2022-08-18T03:03:19.425Z,73.41
2022-08-18T03:03:50.988Z,73.51
2022-08-18T03:04:29.434Z,73.40
2022-08-18T03:05:01.329Z,73.59
2022-08-18T03:05:32.926Z,73.26
2022-08-18T03:06:05.357Z,73.38
2022-08-18T03:06:39.205Z,73.60
2022-08-18T03:07:10.864Z,73.65
2022-08-18T03:07:43.110Z,73.46
2022-08-18T03:08:14.666Z,73.65
2022-08-18T03:08:49.169Z,73.74
2022-08-18T03:09:21.739Z,73.79
2022-08-18T03:09:53.341Z,73.83
2022-08-18T03:10:32.453Z,74.09
2022-08-18T03:11:05.554Z,73.89
2022-08-18T03:11:37.914Z,73.81
2022-08-18T03:12:10.429Z,73.74
2022-08-18T03:12:43.275Z,73.84
2022-08-18T03:13:14.905Z,73.98
2022-08-18T03:13:46.897Z,73.99
2022-08-18T03:14:18.439Z,73.96
2022-08-18T03:14:50.201Z,74.05
2022-08-18T03:15:21.893Z,74.26
2022-08-18T03:15:57.744Z,74.20
2022-08-18T03:16:33.083Z,74.09
2022-08-18T03:17:08.325Z,74.11
2022-08-18T03:17:39.974Z,74.24
2022-08-18T03:18:12.397Z,74.36
2022-08-18T03:18:45.091Z,74.12
2022-08-18T03:19:16.729Z,74.16
2022-08-18T03:19:48.343Z,74.15
2022-08-18T03:20:30.335Z,74.43
2022-08-18T03:21:11.569Z,74.46
2022-08-18T03:21:46.684Z,74.61
2022-08-18T03:22:28.762Z,74.61
2022-08-18T03:23:05.882Z,74.86
2022-08-18T03:23:42.738Z,74.84
2022-08-18T03:24:19.339Z,75.19
2022-08-18T03:24:54.217Z,75.03
2022-08-18T03:25:25.796Z,75.10
2022-08-18T03:25:57.372Z,75.33
2022-08-18T03:26:30.504Z,75.33
2022-08-18T03:27:06.732Z,75.26
2022-08-18T03:27:38.282Z,75.21
2022-08-18T03:28:09.869Z,75.10
2022-08-18T03:28:44.587Z,74.98
2022-08-18T03:29:16.207Z,75.25
2022-08-18T03:29:47.766Z,75.50
2022-08-18T03:30:19.466Z,75.41
2022-08-18T03:30:51.025Z,75.18
2022-08-18T03:31:25.154Z,75.21
2022-08-18T03:32:02.105Z,75.32
2022-08-18T03:32:33.714Z,75.69
2022-08-18T03:33:05.555Z,75.76
2022-08-18T03:33:37.892Z,75.50
2022-08-18T03:34:09.525Z,75.47
2022-08-18T03:34:42.781Z,75.35
2022-08-18T03:35:14.741Z,75.42
2022-08-18T03:35:46.340Z,75.44
2022-08-18T03:36:21.846Z,75.47
2022-08-18T03:36:53.711Z,75.33
2022-08-18T03:37:25.289Z,75.28
2022-08-18T03:38:00.276Z,75.44
2022-08-18T03:38:31.866Z,75.54
2022-08-18T03:39:10.940Z,75.51
2022-08-18T03:39:42.677Z,75.32
2022-08-18T03:40:14.360Z,75.18
2022-08-18T03:40:52.051Z,74.98
2022-08-18T03:41:43.725Z,74.87
2022-08-18T03:42:18.131Z,75.09
2022-08-18T03:42:49.708Z,75.07
2022-08-18T03:43:49.966Z,74.85
2022-08-18T03:44:14.566Z,74.83
2022-08-18T03:44:46.731Z,74.74
2022-08-18T03:45:18.427Z,74.72
2022-08-18T03:45:49.982Z,74.62
2022-08-18T03:46:22.851Z,74.58
2022-08-18T03:46:54.475Z,74.60
2022-08-18T03:47:27.428Z,74.51
2022-08-18T03:48:00.639Z,74.54
2022-08-18T03:48:36.014Z,74.50
2022-08-18T03:49:07.843Z,74.52
2022-08-18T03:49:39.608Z,74.58
2022-08-18T03:50:14.182Z,74.80
2022-08-18T03:50:48.270Z,74.75
2022-08-18T03:51:26.059Z,74.47
2022-08-18T03:52:00.767Z,74.44
2022-08-18T03:52:32.612Z,74.62
2022-08-18T03:53:05.339Z,74.61
2022-08-18T03:53:38.255Z,74.69
2022-08-18T03:54:10.417Z,74.62
2022-08-18T03:54:42.071Z,74.64
2022-08-18T03:55:13.637Z,74.76
2022-08-18T03:55:45.249Z,74.67
2022-08-18T03:56:20.312Z,74.60
2022-08-18T03:56:52.042Z,74.75
2022-08-18T03:57:23.605Z,74.80
2022-08-18T03:57:59.740Z,74.72
2022-08-18T03:58:31.374Z,74.79
2022-08-18T03:59:07.892Z,74.80
2022-08-18T03:59:41.619Z,74.82
2022-08-18T04:00:13.697Z,74.97
2022-08-18T04:00:45.266Z,75.01
2022-08-18T04:01:26.545Z,74.92
2022-08-18T04:01:59.152Z,74.80
2022-08-18T04:02:30.762Z,74.88
2022-08-18T04:03:02.980Z,74.85
2022-08-18T04:03:34.604Z,74.83
2022-08-18T04:04:08.830Z,74.78
2022-08-18T04:04:43.127Z,74.70
2022-08-18T04:05:14.949Z,74.64
2022-08-18T04:05:47.578Z,74.61
2022-08-18T04:06:29.974Z,74.65
2022-08-18T04:07:06.827Z,74.65
2022-08-18T04:07:38.426Z,74.69
2022-08-18T04:08:10.014Z,74.56
2022-08-18T04:08:41.607Z,74.55
2022-08-18T04:09:15.387Z,74.49
2022-08-18T04:09:47.075Z,74.62
2022-08-18T04:10:19.899Z,74.60
2022-08-18T04:10:51.994Z,74.44
2022-08-18T04:11:24.846Z,74.44
2022-08-18T04:11:58.014Z,74.48
2022-08-18T04:12:30.355Z,74.46
2022-08-18T04:13:05.423Z,74.18
2022-08-18T04:13:37.676Z,73.97
2022-08-18T04:14:10.309Z,73.87
2022-08-18T04:14:43.821Z,73.76
2022-08-18T04:15:16.759Z,73.71
2022-08-18T04:15:48.349Z,73.54
2022-08-18T04:16:19.915Z,73.52
2022-08-18T04:16:51.629Z,73.49
2022-08-18T04:17:25.711Z,73.29
2022-08-18T04:18:04.514Z,73.23
2022-08-18T04:18:36.894Z,73.28
2022-08-18T04:19:09.524Z,73.22
2022-08-18T04:19:41.226Z,73.21
2022-08-18T04:20:13.352Z,73.20
2022-08-18T04:20:59.189Z,73.19
2022-08-18T04:21:33.785Z,73.22
2022-08-18T04:22:05.766Z,73.45
2022-08-18T04:22:37.349Z,73.36
2022-08-18T04:23:08.943Z,73.30
2022-08-18T04:23:43.798Z,73.28
2022-08-18T04:24:15.885Z,73.50
2022-08-18T04:24:48.146Z,73.49
2022-08-18T04:25:21.863Z,73.38
2022-08-18T04:25:58.546Z,73.42
2022-08-18T04:26:34.528Z,73.58
2022-08-18T04:27:06.168Z,73.56
2022-08-18T04:27:39.500Z,73.89
2022-08-18T04:28:11.067Z,73.78
2022-08-18T04:28:42.622Z,73.73
2022-08-18T04:29:16.862Z,73.61
2022-08-18T04:29:48.930Z,73.46
2022-08-18T04:30:20.823Z,73.44
2022-08-18T04:30:53.445Z,73.30
2022-08-18T04:31:26.444Z,73.37
2022-08-18T04:32:01.505Z,73.26
2022-08-18T04:32:33.491Z,73.11
2022-08-18T04:33:06.357Z,73.31
2022-08-18T04:33:38.889Z,73.55
2022-08-18T04:34:12.118Z,73.32
2022-08-18T04:34:43.750Z,73.20
2022-08-18T04:35:15.318Z,73.01
2022-08-18T04:35:47.306Z,73.15
2022-08-18T04:36:20.811Z,73.15
2022-08-18T04:36:54.053Z,73.08
2022-08-18T04:37:25.912Z,73.02
2022-08-18T04:37:57.750Z,72.92
2022-08-18T04:38:29.318Z,72.82
2022-08-18T04:39:02.520Z,72.84
2022-08-18T04:39:34.132Z,72.77
2022-08-18T04:40:06.308Z,72.61
2022-08-18T04:40:37.955Z,72.65
2022-08-18T04:41:11.424Z,72.79
2022-08-18T04:41:43.921Z,72.71
2022-08-18T04:42:15.810Z,72.44
2022-08-18T04:42:47.415Z,72.29
2022-08-18T04:43:18.962Z,72.23
2022-08-18T04:43:52.628Z,72.64
2022-08-18T04:44:25.216Z,72.70
2022-08-18T04:44:57.998Z,72.44
2022-08-18T04:45:29.881Z,72.32
2022-08-18T04:46:05.626Z,72.40
2022-08-18T04:46:44.122Z,72.28
2022-08-18T04:47:15.688Z,72.47
2022-08-18T04:47:47.314Z,72.38
2022-08-18T04:48:19.001Z,72.51
2022-08-18T04:49:01.673Z,72.65
2022-08-18T04:49:34.023Z,72.71
2022-08-18T04:50:06.043Z,72.57
2022-08-18T04:50:38.651Z,72.44
2022-08-18T04:51:13.726Z,72.55
2022-08-18T04:52:40.835Z,72.11
2022-08-18T04:53:33.246Z,72.05
2022-08-18T04:54:04.839Z,72.10
2022-08-18T04:54:39.125Z,72.09
2022-08-18T04:55:11.267Z,72.03
2022-08-18T04:55:51.822Z,72.07
2022-08-18T04:56:26.844Z,71.97
2022-08-18T04:56:58.399Z,71.82
2022-08-18T04:57:34.733Z,71.79
2022-08-18T04:58:07.879Z,72.06
2022-08-18T04:58:39.492Z,72.10
2022-08-18T04:59:22.081Z,71.95
2022-08-18T04:59:54.347Z,71.98
2022-08-18T05:00:25.912Z,71.51
2022-08-18T05:01:01.752Z,71.64
2022-08-18T05:01:47.919Z,71.46
2022-08-18T05:02:21.399Z,71.23
2022-08-18T05:02:54.461Z,71.28
2022-08-18T05:03:26.883Z,71.39
2022-08-18T05:03:59.089Z,71.44
2022-08-18T05:04:31.903Z,71.29
2022-08-18T05:05:04.577Z,71.18
2022-08-18T05:05:36.192Z,71.15
2022-08-18T05:06:07.886Z,71.16
2022-08-18T05:06:40.216Z,71.39
2022-08-18T05:07:11.892Z,71.30
2022-08-18T05:07:45.828Z,71.14
2022-08-18T05:08:17.468Z,70.70
2022-08-18T05:08:49.025Z,70.71
2022-08-18T05:09:22.742Z,70.72
2022-08-18T05:09:55.564Z,70.41
2022-08-18T05:10:27.265Z,70.50
2022-08-18T05:11:03.919Z,70.56
2022-08-18T05:11:36.715Z,70.50
2022-08-18T05:12:12.546Z,70.37
2022-08-18T05:12:47.206Z,70.59
2022-08-18T05:13:19.498Z,70.52
2022-08-18T05:13:52.855Z,70.69
2022-08-18T05:14:25.159Z,70.62
2022-08-18T05:14:57.395Z,70.67
2022-08-18T05:15:38.318Z,70.59
2022-08-18T05:16:27.853Z,70.22
2022-08-18T05:17:01.207Z,70.14
2022-08-18T05:17:32.794Z,70.10
2022-08-18T05:18:05.360Z,69.98
2022-08-18T05:18:40.494Z,69.90
2022-08-18T05:19:14.944Z,69.86
2022-08-18T05:19:46.594Z,69.31
2022-08-18T05:20:20.470Z,68.88
2022-08-18T05:20:53.440Z,69.06
2022-08-18T05:21:26.355Z,68.70
2022-08-18T05:21:59.974Z,68.42
2022-08-18T05:22:37.811Z,68.84
2022-08-18T05:23:09.489Z,68.99
2022-08-18T05:23:48.333Z,68.60
2022-08-18T05:24:21.554Z,68.67
2022-08-18T05:24:53.136Z,68.24
2022-08-18T05:25:24.738Z,68.47
2022-08-18T05:26:03.644Z,68.70
2022-08-18T05:26:35.923Z,68.19
2022-08-18T05:27:07.687Z,68.33
2022-08-18T05:27:42.912Z,68.40
2022-08-18T05:28:15.192Z,67.81
2022-08-18T05:28:48.266Z,67.54
2022-08-18T05:29:23.808Z,67.77
2022-08-18T05:29:55.524Z,67.83
2022-08-18T05:30:27.085Z,67.86
2022-08-18T05:31:00.346Z,67.59
2022-08-18T05:31:33.159Z,67.69
2022-08-18T05:32:07.801Z,67.56
2022-08-18T05:32:49.316Z,67.50
2022-08-18T05:33:21.804Z,67.56
2022-08-18T05:33:55.730Z,67.39
2022-08-18T05:34:27.299Z,67.15
2022-08-18T05:35:02.505Z,67.32
2022-08-18T05:35:42.687Z,67.33
2022-08-18T05:36:39.093Z,67.57
2022-08-18T05:37:32.373Z,67.31
2022-08-18T05:38:36.573Z,66.80
2022-08-18T05:39:26.304Z,66.88
2022-08-18T05:40:01.763Z,66.78
2022-08-18T05:40:34.706Z,66.63
2022-08-18T05:41:13.644Z,66.66
2022-08-18T05:41:58.994Z,66.44
2022-08-18T05:42:38.774Z,66.47
2022-08-18T05:43:11.223Z,66.84
2022-08-18T05:43:51.282Z,66.72
2022-08-18T05:44:34.411Z,66.69
2022-08-18T05:45:12.602Z,66.21
2022-08-18T05:45:44.419Z,66.16
2022-08-18T05:46:16.470Z,66.19
2022-08-18T05:47:01.086Z,65.89
2022-08-18T05:47:33.215Z,65.84
2022-08-18T05:48:04.911Z,65.69
2022-08-18T05:48:42.716Z,65.60
2022-08-18T05:49:16.056Z,65.50
2022-08-18T05:49:49.180Z,65.36
2022-08-18T05:50:21.154Z,65.48
2022-08-18T05:50:54.455Z,65.24
2022-08-18T05:51:32.968Z,65.05
2022-08-18T05:52:08.369Z,65.09
2022-08-18T05:52:51.106Z,64.73
2022-08-18T05:53:42.736Z,64.83
2022-08-18T05:54:34.825Z,65.20
2022-08-18T05:55:51.936Z,64.49
2022-08-18T05:59:53.868Z,64.10
2022-08-18T06:00:26.791Z,63.72
2022-08-18T06:01:05.932Z,63.80
2022-08-18T06:01:45.966Z,63.64
2022-08-18T06:02:38.753Z,63.15
2022-08-18T06:03:27.442Z,63.31
2022-08-18T06:04:23.459Z,63.14
2022-08-18T06:05:06.573Z,62.94
2022-08-18T06:05:57.539Z,62.96
2022-08-18T06:06:31.582Z,62.87
2022-08-18T06:07:07.980Z,62.69
2022-08-18T06:07:47.031Z,62.95
2022-08-18T06:08:22.591Z,62.48
2022-08-18T06:09:17.660Z,62.39
2022-08-18T06:09:54.935Z,62.32
2022-08-18T06:10:27.292Z,62.32
2022-08-18T06:10:59.270Z,62.41
2022-08-18T06:11:30.838Z,62.30
2022-08-18T06:12:19.542Z,62.12
2022-08-18T06:13:01.387Z,61.68
2022-08-18T06:13:42.681Z,61.77
2022-08-18T06:14:16.690Z,61.46
2022-08-18T06:14:49.492Z,61.76
2022-08-18T06:15:36.131Z,61.37
2022-08-18T06:16:28.577Z,61.31
2022-08-18T06:17:06.033Z,61.19
2022-08-18T06:17:53.531Z,61.20
2022-08-18T06:19:00.578Z,61.13
2022-08-18T06:19:49.876Z,61.28
2022-08-18T06:20:33.264Z,60.83
2022-08-18T06:21:10.676Z,60.57
2022-08-18T06:22:17.723Z,60.27
2022-08-18T06:22:56.564Z,60.35
2022-08-18T06:23:52.977Z,60.45
2022-08-18T06:24:31.910Z,60.17
2022-08-18T06:25:21.418Z,60.08
2022-08-18T06:26:13.649Z,60.05
2022-08-18T06:27:24.803Z,59.91
2022-08-18T06:28:17.435Z,59.58
2022-08-18T06:29:12.238Z,59.58
2022-08-18T06:30:19.900Z,59.58
2022-08-18T06:31:05.514Z,59.50
2022-08-18T06:32:07.543Z,59.29
2022-08-18T06:33:16.214Z,59.01
2022-08-18T06:34:22.998Z,58.80
2022-08-18T06:35:33.390Z,58.71
2022-08-18T06:36:19.336Z,58.45
2022-08-18T06:37:07.111Z,58.50
2022-08-18T06:38:08.725Z,58.26
2022-08-18T06:39:24.126Z,58.52
2022-08-18T06:39:57.278Z,58.59
2022-08-18T06:40:28.998Z,58.67
2022-08-18T06:41:40.635Z,58.59
2022-08-18T06:42:06.863Z,58.55
2022-08-18T06:42:40.606Z,58.24
2022-08-18T06:43:15.930Z,58.32
2022-08-18T06:44:08.870Z,58.04
2022-08-18T06:44:50.546Z,58.32
2022-08-18T06:45:33.791Z,58.17
2022-08-18T06:46:17.920Z,58.16
2022-08-18T06:47:09.792Z,57.94
2022-08-18T06:47:59.790Z,57.95
2022-08-18T06:48:44.607Z,57.96
2022-08-18T06:49:35.929Z,57.76
2022-08-18T06:50:18.785Z,57.36
2022-08-18T06:50:58.690Z,57.83
2022-08-18T06:51:30.565Z,57.76
2022-08-18T06:52:23.805Z,57.56
2022-08-18T06:53:02.050Z,57.61
2022-08-18T06:53:56.246Z,57.78
2022-08-18T06:54:29.916Z,57.66
2022-08-18T06:55:06.726Z,57.60
2022-08-18T06:55:42.622Z,57.27
2022-08-18T06:56:32.806Z,57.18
2022-08-18T06:57:04.617Z,57.00
2022-08-18T06:57:39.377Z,57.32
2022-08-18T06:58:17.507Z,57.25
2022-08-18T06:58:53.061Z,57.57
2022-08-18T06:59:33.950Z,57.37
2022-08-18T07:00:17.486Z,57.15
2022-08-18T07:00:52.145Z,57.31
2022-08-18T07:01:28.799Z,57.28
2022-08-18T07:02:20.104Z,57.59
2022-08-18T07:02:54.855Z,57.34
2022-08-18T07:03:56.268Z,57.35
2022-08-18T07:04:37.254Z,57.21
2022-08-18T07:05:19.722Z,57.05
2022-08-18T07:06:10.398Z,57.27
2022-08-18T07:06:43.522Z,57.10
2022-08-18T07:07:30.101Z,56.98
2022-08-18T07:08:18.433Z,57.10
2022-08-18T07:08:53.632Z,57.26
2022-08-18T07:09:32.988Z,57.01
2022-08-18T07:10:08.156Z,56.90
2022-08-18T07:10:45.909Z,56.93
2022-08-18T07:11:17.426Z,56.79
2022-08-18T07:12:22.656Z,56.91
2022-08-18T07:13:14.452Z,56.62
2022-08-18T07:14:09.150Z,56.42
2022-08-18T07:14:57.602Z,56.77
2022-08-18T07:15:29.294Z,56.41
2022-08-18T07:16:54.423Z,56.05
2022-08-18T07:17:42.506Z,55.78
2022-08-18T07:18:22.732Z,55.29
2022-08-18T07:18:55.034Z,55.06
2022-08-18T07:19:30.614Z,55.25
2022-08-18T07:20:10.366Z,55.40
2022-08-18T07:20:47.789Z,54.94
2022-08-18T07:21:31.206Z,55.00
2022-08-18T07:22:17.162Z,54.89
2022-08-18T07:23:00.136Z,54.46
2022-08-18T07:23:40.782Z,54.47
2022-08-18T07:24:39.422Z,54.03
2022-08-18T07:25:22.753Z,54.03
2022-08-18T07:26:20.458Z,54.10
2022-08-18T07:27:02.283Z,53.50
2022-08-18T07:27:39.976Z,53.66
2022-08-18T07:28:50.330Z,53.61
2022-08-18T07:29:21.959Z,53.61
2022-08-18T07:30:19.317Z,52.98
2022-08-18T07:31:15.470Z,52.78
2022-08-18T07:31:50.125Z,52.78
2022-08-18T07:32:24.194Z,52.44
2022-08-18T07:33:01.381Z,52.37
2022-08-18T07:33:32.997Z,52.20
2022-08-18T07:34:12.542Z,52.08
2022-08-18T07:34:53.323Z,51.92
2022-08-18T07:35:34.427Z,51.72
2022-08-18T07:36:07.838Z,51.63
2022-08-18T07:36:49.455Z,51.37
2022-08-18T07:37:28.055Z,51.56
2022-08-18T07:38:42.192Z,51.53
2022-08-18T07:39:20.811Z,51.62
2022-08-18T07:40:03.882Z,51.46
2022-08-18T07:40:54.188Z,51.08
2022-08-18T07:41:35.561Z,51.27
2022-08-18T07:42:37.125Z,51.30
2022-08-18T07:43:19.915Z,50.50
2022-08-18T07:44:13.791Z,49.71
2022-08-18T07:44:55.063Z,49.46
2022-08-18T07:45:32.669Z,49.39
2022-08-18T07:46:47.563Z,49.11
2022-08-18T07:47:25.785Z,49.07
2022-08-18T07:48:20.767Z,49.30
2022-08-18T07:48:58.782Z,48.65
2022-08-18T07:49:36.951Z,48.47
2022-08-18T07:50:31.361Z,48.37
2022-08-18T07:51:25.053Z,48.35
2022-08-18T07:52:36.589Z,48.97
2022-08-18T07:53:24.084Z,49.49
2022-08-18T07:54:47.240Z,48.72
2022-08-18T07:55:31.047Z,48.56
2022-08-18T07:56:17.351Z,49.01
2022-08-18T07:56:54.586Z,48.92
2022-08-18T07:57:56.353Z,48.75
2022-08-18T07:58:40.492Z,48.53
2022-08-18T07:59:45.473Z,48.89
2022-08-18T08:01:33.535Z,48.99
2022-08-18T08:02:11.376Z,48.56
2022-08-18T08:02:55.683Z,48.99
2022-08-18T08:03:41.259Z,48.72
2022-08-18T08:04:28.211Z,49.03
2022-08-18T08:05:12.015Z,48.69
2022-08-18T08:05:43.587Z,47.48
2022-08-18T08:07:06.137Z,47.29
2022-08-18T08:07:37.299Z,46.63